sensor_id;sensor_type;location;lat;lon;timestamp;temperature;humidity
18365;DHT22;9309;52.126;11.616;2022-10-22T00:00:43;12.50;93.00
18365;DHT22;9309;52.126;11.616;2022-10-22T00:03:10;12.60;92.40
18365;DHT22;9309;52.126;11.616;2022-10-22T00:05:37;12.60;91.70
18365;DHT22;9309;52.126;11.616;2022-10-22T00:08:04;12.50;91.80
18365;DHT22;9309;52.126;11.616;2022-10-22T00:10:31;12.30;92.60
18365;DHT22;9309;52.126;11.616;2022-10-22T00:12:58;11.90;94.60
18365;DHT22;9309;52.126;11.616;2022-10-22T00:15:26;11.80;96.00
18365;DHT22;9309;52.126;11.616;2022-10-22T00:17:53;12.00;95.60
18365;DHT22;9309;52.126;11.616;2022-10-22T00:20:20;12.20;94.10
18365;DHT22;9309;52.126;11.616;2022-10-22T00:22:47;12.30;93.30
18365;DHT22;9309;52.126;11.616;2022-10-22T00:25:14;12.30;93.10
18365;DHT22;9309;52.126;11.616;2022-10-22T00:27:41;12.50;93.00
18365;DHT22;9309;52.126;11.616;2022-10-22T00:30:08;12.50;92.50
18365;DHT22;9309;52.126;11.616;2022-10-22T00:32:37;12.40;92.80
18365;DHT22;9309;52.126;11.616;2022-10-22T00:35:05;12.40;93.90
18365;DHT22;9309;52.126;11.616;2022-10-22T00:37:32;12.50;92.80
18365;DHT22;9309;52.126;11.616;2022-10-22T00:39:59;12.50;93.10
18365;DHT22;9309;52.126;11.616;2022-10-22T00:42:26;12.60;92.90
18365;DHT22;9309;52.126;11.616;2022-10-22T00:45:06;12.60;92.90
18365;DHT22;9309;52.126;11.616;2022-10-22T00:47:39;12.60;92.90
18365;DHT22;9309;52.126;11.616;2022-10-22T00:50:10;12.60;92.90
18365;DHT22;9309;52.126;11.616;2022-10-22T00:52:37;12.70;92.90
18365;DHT22;9309;52.126;11.616;2022-10-22T00:55:05;12.80;92.30
18365;DHT22;9309;52.126;11.616;2022-10-22T00:57:33;12.60;93.20
18365;DHT22;9309;52.126;11.616;2022-10-22T01:00:01;12.70;92.60
18365;DHT22;9309;52.126;11.616;2022-10-22T01:02:28;12.70;92.10
18365;DHT22;9309;52.126;11.616;2022-10-22T01:04:56;12.80;92.10
18365;DHT22;9309;52.126;11.616;2022-10-22T01:07:23;12.70;91.90
18365;DHT22;9309;52.126;11.616;2022-10-22T01:09:57;12.70;92.40
18365;DHT22;9309;52.126;11.616;2022-10-22T01:12:33;12.60;93.20
18365;DHT22;9309;52.126;11.616;2022-10-22T01:15:10;12.70;92.80
18365;DHT22;9309;52.126;11.616;2022-10-22T01:17:41;12.70;92.20
18365;DHT22;9309;52.126;11.616;2022-10-22T01:20:23;12.80;92.30
18365;DHT22;9309;52.126;11.616;2022-10-22T01:22:58;12.80;92.10
18365;DHT22;9309;52.126;11.616;2022-10-22T01:25:33;12.70;91.90
18365;DHT22;9309;52.126;11.616;2022-10-22T01:28:10;12.60;92.90
18365;DHT22;9309;52.126;11.616;2022-10-22T01:30:40;12.80;92.70
18365;DHT22;9309;52.126;11.616;2022-10-22T01:33:09;12.90;91.90
18365;DHT22;9309;52.126;11.616;2022-10-22T01:35:40;12.90;91.40
18365;DHT22;9309;52.126;11.616;2022-10-22T01:38:11;12.90;91.10
18365;DHT22;9309;52.126;11.616;2022-10-22T01:40:39;12.80;91.50
18365;DHT22;9309;52.126;11.616;2022-10-22T01:43:09;12.80;91.60
18365;DHT22;9309;52.126;11.616;2022-10-22T01:45:41;12.80;91.70
18365;DHT22;9309;52.126;11.616;2022-10-22T01:48:21;12.70;92.00
18365;DHT22;9309;52.126;11.616;2022-10-22T01:51:10;12.50;92.80
18365;DHT22;9309;52.126;11.616;2022-10-22T01:53:43;12.60;93.00
18365;DHT22;9309;52.126;11.616;2022-10-22T01:56:27;12.70;92.90
18365;DHT22;9309;52.126;11.616;2022-10-22T01:59:04;12.70;92.30
18365;DHT22;9309;52.126;11.616;2022-10-22T02:01:40;12.80;92.10
18365;DHT22;9309;52.126;11.616;2022-10-22T02:04:16;12.80;91.70
18365;DHT22;9309;52.126;11.616;2022-10-22T02:06:46;12.80;91.60
18365;DHT22;9309;52.126;11.616;2022-10-22T02:09:15;12.80;91.40
18365;DHT22;9309;52.126;11.616;2022-10-22T02:11:43;12.60;92.30
18365;DHT22;9309;52.126;11.616;2022-10-22T02:14:12;12.60;92.80
18365;DHT22;9309;52.126;11.616;2022-10-22T02:16:43;12.40;93.70
18365;DHT22;9309;52.126;11.616;2022-10-22T02:19:14;12.30;95.00
18365;DHT22;9309;52.126;11.616;2022-10-22T02:21:42;12.20;95.30
18365;DHT22;9309;52.126;11.616;2022-10-22T02:24:10;12.50;95.20
18365;DHT22;9309;52.126;11.616;2022-10-22T02:26:39;12.60;94.20
18365;DHT22;9309;52.126;11.616;2022-10-22T02:29:12;12.70;93.30
18365;DHT22;9309;52.126;11.616;2022-10-22T02:31:43;12.70;93.20
18365;DHT22;9309;52.126;11.616;2022-10-22T02:34:14;12.80;92.80
18365;DHT22;9309;52.126;11.616;2022-10-22T02:36:43;12.80;92.50
18365;DHT22;9309;52.126;11.616;2022-10-22T02:39:12;12.90;92.10
18365;DHT22;9309;52.126;11.616;2022-10-22T02:41:40;12.90;92.00
18365;DHT22;9309;52.126;11.616;2022-10-22T02:44:09;12.90;92.00
18365;DHT22;9309;52.126;11.616;2022-10-22T02:46:37;13.00;91.80
18365;DHT22;9309;52.126;11.616;2022-10-22T02:49:05;13.00;91.60
18365;DHT22;9309;52.126;11.616;2022-10-22T02:51:32;13.00;91.50
18365;DHT22;9309;52.126;11.616;2022-10-22T02:53:59;12.80;91.80
18365;DHT22;9309;52.126;11.616;2022-10-22T02:56:26;12.70;92.70
18365;DHT22;9309;52.126;11.616;2022-10-22T02:58:53;12.90;92.30
18365;DHT22;9309;52.126;11.616;2022-10-22T03:01:20;13.00;92.20
18365;DHT22;9309;52.126;11.616;2022-10-22T03:03:47;13.00;91.80
18365;DHT22;9309;52.126;11.616;2022-10-22T03:06:15;13.10;91.30
18365;DHT22;9309;52.126;11.616;2022-10-22T03:08:42;13.10;91.20
18365;DHT22;9309;52.126;11.616;2022-10-22T03:11:09;13.10;91.20
18365;DHT22;9309;52.126;11.616;2022-10-22T03:13:36;13.10;91.30
18365;DHT22;9309;52.126;11.616;2022-10-22T03:16:03;13.10;91.20
18365;DHT22;9309;52.126;11.616;2022-10-22T03:18:30;13.10;91.20
18365;DHT22;9309;52.126;11.616;2022-10-22T03:21:00;13.20;90.80
18365;DHT22;9309;52.126;11.616;2022-10-22T03:23:31;13.20;90.50
18365;DHT22;9309;52.126;11.616;2022-10-22T03:25:58;13.20;90.40
18365;DHT22;9309;52.126;11.616;2022-10-22T03:28:25;13.20;90.70
18365;DHT22;9309;52.126;11.616;2022-10-22T03:30:52;13.10;90.80
18365;DHT22;9309;52.126;11.616;2022-10-22T03:33:19;13.10;91.20
18365;DHT22;9309;52.126;11.616;2022-10-22T03:35:47;13.10;91.40
18365;DHT22;9309;52.126;11.616;2022-10-22T03:38:14;13.00;91.60
18365;DHT22;9309;52.126;11.616;2022-10-22T03:40:43;13.00;91.50
18365;DHT22;9309;52.126;11.616;2022-10-22T03:43:11;13.00;91.80
18365;DHT22;9309;52.126;11.616;2022-10-22T03:45:37;13.10;91.20
18365;DHT22;9309;52.126;11.616;2022-10-22T03:48:05;13.10;90.70
18365;DHT22;9309;52.126;11.616;2022-10-22T03:50:32;13.00;91.20
18365;DHT22;9309;52.126;11.616;2022-10-22T03:52:59;13.00;91.20
18365;DHT22;9309;52.126;11.616;2022-10-22T03:55:26;13.00;91.10
18365;DHT22;9309;52.126;11.616;2022-10-22T03:57:54;13.00;91.50
18365;DHT22;9309;52.126;11.616;2022-10-22T04:00:21;13.00;91.40
18365;DHT22;9309;52.126;11.616;2022-10-22T04:02:48;13.00;91.50
18365;DHT22;9309;52.126;11.616;2022-10-22T04:05:15;13.00;91.50
18365;DHT22;9309;52.126;11.616;2022-10-22T04:07:42;12.90;91.30
18365;DHT22;9309;52.126;11.616;2022-10-22T04:10:09;12.80;92.20
18365;DHT22;9309;52.126;11.616;2022-10-22T04:12:36;12.90;92.10
18365;DHT22;9309;52.126;11.616;2022-10-22T04:15:05;12.90;91.90
18365;DHT22;9309;52.126;11.616;2022-10-22T04:17:33;13.00;91.30
18365;DHT22;9309;52.126;11.616;2022-10-22T04:20:00;13.10;90.60
18365;DHT22;9309;52.126;11.616;2022-10-22T04:22:27;13.10;90.20
18365;DHT22;9309;52.126;11.616;2022-10-22T04:24:54;12.90;90.60
18365;DHT22;9309;52.126;11.616;2022-10-22T04:27:21;12.80;91.20
18365;DHT22;9309;52.126;11.616;2022-10-22T04:29:47;12.60;92.00
18365;DHT22;9309;52.126;11.616;2022-10-22T04:32:16;12.70;92.60
18365;DHT22;9309;52.126;11.616;2022-10-22T04:34:43;12.70;92.50
18365;DHT22;9309;52.126;11.616;2022-10-22T04:37:10;12.70;92.40
18365;DHT22;9309;52.126;11.616;2022-10-22T04:39:36;12.60;92.50
18365;DHT22;9309;52.126;11.616;2022-10-22T04:42:04;12.60;92.70
18365;DHT22;9309;52.126;11.616;2022-10-22T04:44:31;12.60;92.70
18365;DHT22;9309;52.126;11.616;2022-10-22T04:46:58;12.50;92.90
18365;DHT22;9309;52.126;11.616;2022-10-22T04:49:26;12.60;93.10
18365;DHT22;9309;52.126;11.616;2022-10-22T04:51:53;12.50;93.10
18365;DHT22;9309;52.126;11.616;2022-10-22T04:54:35;12.40;93.30
18365;DHT22;9309;52.126;11.616;2022-10-22T04:57:02;12.20;94.70
18365;DHT22;9309;52.126;11.616;2022-10-22T04:59:29;12.00;95.30
18365;DHT22;9309;52.126;11.616;2022-10-22T05:01:55;12.30;95.50
18365;DHT22;9309;52.126;11.616;2022-10-22T05:04:22;12.50;94.00
18365;DHT22;9309;52.126;11.616;2022-10-22T05:06:50;12.60;93.20
18365;DHT22;9309;52.126;11.616;2022-10-22T05:09:19;12.70;92.30
18365;DHT22;9309;52.126;11.616;2022-10-22T05:11:47;12.70;92.20
18365;DHT22;9309;52.126;11.616;2022-10-22T05:14:16;12.70;92.30
18365;DHT22;9309;52.126;11.616;2022-10-22T05:16:43;12.70;92.50
18365;DHT22;9309;52.126;11.616;2022-10-22T05:19:16;12.70;92.60
18365;DHT22;9309;52.126;11.616;2022-10-22T05:21:43;12.60;93.10
18365;DHT22;9309;52.126;11.616;2022-10-22T05:24:11;12.70;92.80
18365;DHT22;9309;52.126;11.616;2022-10-22T05:26:38;12.70;92.80
18365;DHT22;9309;52.126;11.616;2022-10-22T05:29:05;12.70;92.90
18365;DHT22;9309;52.126;11.616;2022-10-22T05:31:31;12.80;92.60
18365;DHT22;9309;52.126;11.616;2022-10-22T05:33:58;12.80;92.30
18365;DHT22;9309;52.126;11.616;2022-10-22T05:36:25;12.60;92.50
18365;DHT22;9309;52.126;11.616;2022-10-22T05:38:52;12.50;93.50
18365;DHT22;9309;52.126;11.616;2022-10-22T05:41:22;12.60;93.40
18365;DHT22;9309;52.126;11.616;2022-10-22T05:43:50;12.70;92.60
18365;DHT22;9309;52.126;11.616;2022-10-22T05:46:18;12.70;92.60
18365;DHT22;9309;52.126;11.616;2022-10-22T05:48:48;12.70;92.40
18365;DHT22;9309;52.126;11.616;2022-10-22T05:51:15;12.70;92.40
18365;DHT22;9309;52.126;11.616;2022-10-22T05:53:42;12.80;92.10
18365;DHT22;9309;52.126;11.616;2022-10-22T05:56:12;12.70;92.10
18365;DHT22;9309;52.126;11.616;2022-10-22T05:58:40;12.70;92.10
18365;DHT22;9309;52.126;11.616;2022-10-22T06:01:11;12.50;92.40
18365;DHT22;9309;52.126;11.616;2022-10-22T06:03:38;12.30;93.70
18365;DHT22;9309;52.126;11.616;2022-10-22T06:06:14;12.40;93.90
18365;DHT22;9309;52.126;11.616;2022-10-22T06:08:43;12.50;93.40
18365;DHT22;9309;52.126;11.616;2022-10-22T06:11:11;12.60;92.80
18365;DHT22;9309;52.126;11.616;2022-10-22T06:13:37;12.60;92.90
18365;DHT22;9309;52.126;11.616;2022-10-22T06:16:06;12.60;92.90
18365;DHT22;9309;52.126;11.616;2022-10-22T06:18:33;12.60;92.70
18365;DHT22;9309;52.126;11.616;2022-10-22T06:21:04;12.60;92.80
18365;DHT22;9309;52.126;11.616;2022-10-22T06:23:31;12.60;92.50
18365;DHT22;9309;52.126;11.616;2022-10-22T06:25:58;12.40;93.20
18365;DHT22;9309;52.126;11.616;2022-10-22T06:28:26;12.10;94.90
18365;DHT22;9309;52.126;11.616;2022-10-22T06:30:53;12.00;95.90
18365;DHT22;9309;52.126;11.616;2022-10-22T06:33:21;12.20;95.80
18365;DHT22;9309;52.126;11.616;2022-10-22T06:35:48;12.50;95.10
18365;DHT22;9309;52.126;11.616;2022-10-22T06:38:15;12.70;93.40
18365;DHT22;9309;52.126;11.616;2022-10-22T06:40:42;12.80;92.10
18365;DHT22;9309;52.126;11.616;2022-10-22T06:43:09;12.90;91.50
18365;DHT22;9309;52.126;11.616;2022-10-22T06:45:37;13.00;91.30
18365;DHT22;9309;52.126;11.616;2022-10-22T06:48:04;13.00;91.50
18365;DHT22;9309;52.126;11.616;2022-10-22T06:50:32;13.00;91.60
18365;DHT22;9309;52.126;11.616;2022-10-22T06:52:59;13.10;91.70
18365;DHT22;9309;52.126;11.616;2022-10-22T06:55:26;13.20;91.30
18365;DHT22;9309;52.126;11.616;2022-10-22T06:57:54;13.00;91.00
18365;DHT22;9309;52.126;11.616;2022-10-22T07:00:21;13.00;92.10
18365;DHT22;9309;52.126;11.616;2022-10-22T07:02:50;13.10;91.70
18365;DHT22;9309;52.126;11.616;2022-10-22T07:05:19;13.10;91.50
18365;DHT22;9309;52.126;11.616;2022-10-22T07:07:47;13.20;91.50
18365;DHT22;9309;52.126;11.616;2022-10-22T07:10:15;13.20;91.30
18365;DHT22;9309;52.126;11.616;2022-10-22T07:12:42;13.10;91.90
18365;DHT22;9309;52.126;11.616;2022-10-22T07:15:09;13.20;91.60
18365;DHT22;9309;52.126;11.616;2022-10-22T07:17:36;13.20;92.00
18365;DHT22;9309;52.126;11.616;2022-10-22T07:20:04;13.30;91.70
18365;DHT22;9309;52.126;11.616;2022-10-22T07:22:31;13.20;91.80
18365;DHT22;9309;52.126;11.616;2022-10-22T07:24:59;13.00;92.90
18365;DHT22;9309;52.126;11.616;2022-10-22T07:27:26;13.10;93.20
18365;DHT22;9309;52.126;11.616;2022-10-22T07:29:53;13.30;92.40
18365;DHT22;9309;52.126;11.616;2022-10-22T07:32:20;13.30;92.30
18365;DHT22;9309;52.126;11.616;2022-10-22T07:34:47;13.30;92.70
18365;DHT22;9309;52.126;11.616;2022-10-22T07:37:14;13.30;92.80
18365;DHT22;9309;52.126;11.616;2022-10-22T07:39:41;13.20;93.10
18365;DHT22;9309;52.126;11.616;2022-10-22T07:42:09;13.20;94.00
18365;DHT22;9309;52.126;11.616;2022-10-22T07:44:36;13.40;94.00
18365;DHT22;9309;52.126;11.616;2022-10-22T07:47:03;13.60;93.20
18365;DHT22;9309;52.126;11.616;2022-10-22T07:49:29;13.70;92.40
18365;DHT22;9309;52.126;11.616;2022-10-22T07:51:56;13.80;91.90
18365;DHT22;9309;52.126;11.616;2022-10-22T07:54:23;13.90;91.10
18365;DHT22;9309;52.126;11.616;2022-10-22T07:56:50;14.00;90.90
18365;DHT22;9309;52.126;11.616;2022-10-22T07:59:19;13.90;91.40
18365;DHT22;9309;52.126;11.616;2022-10-22T08:01:46;14.10;90.70
18365;DHT22;9309;52.126;11.616;2022-10-22T08:04:12;14.20;90.90
18365;DHT22;9309;52.126;11.616;2022-10-22T08:06:39;14.40;90.10
18365;DHT22;9309;52.126;11.616;2022-10-22T08:09:06;14.40;89.70
18365;DHT22;9309;52.126;11.616;2022-10-22T08:11:33;14.40;89.50
18365;DHT22;9309;52.126;11.616;2022-10-22T08:14:00;14.40;90.30
18365;DHT22;9309;52.126;11.616;2022-10-22T08:16:29;14.40;90.10
18365;DHT22;9309;52.126;11.616;2022-10-22T08:18:56;14.60;89.50
18365;DHT22;9309;52.126;11.616;2022-10-22T08:21:23;14.70;88.60
18365;DHT22;9309;52.126;11.616;2022-10-22T08:23:49;14.60;88.70
18365;DHT22;9309;52.126;11.616;2022-10-22T08:26:16;14.60;89.00
18365;DHT22;9309;52.126;11.616;2022-10-22T08:28:43;14.60;89.10
18365;DHT22;9309;52.126;11.616;2022-10-22T08:31:11;14.60;89.30
18365;DHT22;9309;52.126;11.616;2022-10-22T08:33:39;14.60;88.90
18365;DHT22;9309;52.126;11.616;2022-10-22T08:36:07;14.60;89.30
18365;DHT22;9309;52.126;11.616;2022-10-22T08:38:34;14.50;89.90
18365;DHT22;9309;52.126;11.616;2022-10-22T08:41:07;14.60;89.80
18365;DHT22;9309;52.126;11.616;2022-10-22T08:46:37;14.90;88.70
18365;DHT22;9309;52.126;11.616;2022-10-22T08:49:12;15.00;87.80
18365;DHT22;9309;52.126;11.616;2022-10-22T08:51:42;15.00;87.80
18365;DHT22;9309;52.126;11.616;2022-10-22T08:54:18;15.00;88.10
18365;DHT22;9309;52.126;11.616;2022-10-22T08:56:55;15.10;87.90
18365;DHT22;9309;52.126;11.616;2022-10-22T08:59:26;15.10;87.20
18365;DHT22;9309;52.126;11.616;2022-10-22T09:01:55;14.90;87.40
18365;DHT22;9309;52.126;11.616;2022-10-22T09:04:27;15.00;88.10
18365;DHT22;9309;52.126;11.616;2022-10-22T09:07:36;15.10;87.80
18365;DHT22;9309;52.126;11.616;2022-10-22T09:10:21;15.30;86.60
18365;DHT22;9309;52.126;11.616;2022-10-22T09:12:50;15.40;85.70
18365;DHT22;9309;52.126;11.616;2022-10-22T09:15:18;15.60;85.60
18365;DHT22;9309;52.126;11.616;2022-10-22T09:17:54;15.80;84.70
18365;DHT22;9309;52.126;11.616;2022-10-22T09:20:27;16.10;83.50
18365;DHT22;9309;52.126;11.616;2022-10-22T09:23:09;16.50;83.50
18365;DHT22;9309;52.126;11.616;2022-10-22T09:25:38;16.70;82.50
18365;DHT22;9309;52.126;11.616;2022-10-22T09:28:07;16.90;81.10
18365;DHT22;9309;52.126;11.616;2022-10-22T09:30:36;17.10;79.80
18365;DHT22;9309;52.126;11.616;2022-10-22T09:33:11;17.00;80.80
18365;DHT22;9309;52.126;11.616;2022-10-22T09:35:46;17.00;80.60
18365;DHT22;9309;52.126;11.616;2022-10-22T09:38:14;16.90;80.80
18365;DHT22;9309;52.126;11.616;2022-10-22T09:40:43;16.90;81.70
18365;DHT22;9309;52.126;11.616;2022-10-22T09:43:12;17.10;81.60
18365;DHT22;9309;52.126;11.616;2022-10-22T09:45:40;17.20;80.30
18365;DHT22;9309;52.126;11.616;2022-10-22T09:48:15;17.10;79.70
18365;DHT22;9309;52.126;11.616;2022-10-22T09:50:47;17.00;80.40
18365;DHT22;9309;52.126;11.616;2022-10-22T09:53:18;16.90;80.70
18365;DHT22;9309;52.126;11.616;2022-10-22T09:55:49;16.70;80.50
18365;DHT22;9309;52.126;11.616;2022-10-22T09:58:19;16.70;80.90
18365;DHT22;9309;52.126;11.616;2022-10-22T10:00:51;16.80;80.40
18365;DHT22;9309;52.126;11.616;2022-10-22T10:03:21;16.90;80.10
18365;DHT22;9309;52.126;11.616;2022-10-22T10:05:52;17.10;78.50
18365;DHT22;9309;52.126;11.616;2022-10-22T10:08:20;17.50;77.90
18365;DHT22;9309;52.126;11.616;2022-10-22T10:10:50;17.90;75.00
18365;DHT22;9309;52.126;11.616;2022-10-22T10:13:31;18.00;74.70
18365;DHT22;9309;52.126;11.616;2022-10-22T10:16:05;18.60;71.90
18365;DHT22;9309;52.126;11.616;2022-10-22T10:18:44;18.90;72.00
18365;DHT22;9309;52.126;11.616;2022-10-22T10:21:22;19.20;70.00
18365;DHT22;9309;52.126;11.616;2022-10-22T10:23:58;19.10;68.60
18365;DHT22;9309;52.126;11.616;2022-10-22T10:26:32;18.80;71.10
18365;DHT22;9309;52.126;11.616;2022-10-22T10:29:10;18.50;72.40
18365;DHT22;9309;52.126;11.616;2022-10-22T10:31:48;18.30;73.80
18365;DHT22;9309;52.126;11.616;2022-10-22T10:34:25;18.50;72.30
18365;DHT22;9309;52.126;11.616;2022-10-22T10:37:03;18.60;71.70
18365;DHT22;9309;52.126;11.616;2022-10-22T10:39:36;18.60;72.10
18365;DHT22;9309;52.126;11.616;2022-10-22T10:42:13;18.50;73.40
18365;DHT22;9309;52.126;11.616;2022-10-22T10:44:55;18.50;71.40
18365;DHT22;9309;52.126;11.616;2022-10-22T10:47:38;18.50;69.60
18365;DHT22;9309;52.126;11.616;2022-10-22T10:50:17;18.60;68.80
18365;DHT22;9309;52.126;11.616;2022-10-22T10:52:53;18.70;69.20
18365;DHT22;9309;52.126;11.616;2022-10-22T10:55:29;18.70;70.60
18365;DHT22;9309;52.126;11.616;2022-10-22T11:00:37;18.80;66.70
18365;DHT22;9309;52.126;11.616;2022-10-22T11:03:33;19.00;66.00
18365;DHT22;9309;52.126;11.616;2022-10-22T11:06:07;18.90;66.60
18365;DHT22;9309;52.126;11.616;2022-10-22T11:08:38;18.90;67.10
18365;DHT22;9309;52.126;11.616;2022-10-22T11:11:10;18.80;68.10
18365;DHT22;9309;52.126;11.616;2022-10-22T11:13:40;18.70;69.80
18365;DHT22;9309;52.126;11.616;2022-10-22T11:16:11;18.60;70.50
18365;DHT22;9309;52.126;11.616;2022-10-22T11:18:46;19.00;68.20
18365;DHT22;9309;52.126;11.616;2022-10-22T11:21:18;19.10;68.90
18365;DHT22;9309;52.126;11.616;2022-10-22T11:23:52;19.20;68.60
18365;DHT22;9309;52.126;11.616;2022-10-22T11:26:28;19.00;69.20
18365;DHT22;9309;52.126;11.616;2022-10-22T11:28:59;19.20;68.60
18365;DHT22;9309;52.126;11.616;2022-10-22T11:31:28;19.50;67.00
18365;DHT22;9309;52.126;11.616;2022-10-22T11:34:02;20.60;63.10
18365;DHT22;9309;52.126;11.616;2022-10-22T11:36:31;21.50;60.20
18365;DHT22;9309;52.126;11.616;2022-10-22T11:39:01;24.40;52.90
18365;DHT22;9309;52.126;11.616;2022-10-22T11:41:29;27.80;45.10
18365;DHT22;9309;52.126;11.616;2022-10-22T11:44:07;29.80;40.10
18365;DHT22;9309;52.126;11.616;2022-10-22T11:46:43;30.90;37.70
18365;DHT22;9309;52.126;11.616;2022-10-22T11:49:22;32.10;36.10
18365;DHT22;9309;52.126;11.616;2022-10-22T11:51:49;31.30;36.30
18365;DHT22;9309;52.126;11.616;2022-10-22T11:54:40;29.80;39.40
18365;DHT22;9309;52.126;11.616;2022-10-22T11:57:24;27.90;41.40
18365;DHT22;9309;52.126;11.616;2022-10-22T11:59:55;26.00;45.30
18365;DHT22;9309;52.126;11.616;2022-10-22T12:02:41;24.30;48.90
18365;DHT22;9309;52.126;11.616;2022-10-22T12:05:32;22.60;53.10
18365;DHT22;9309;52.126;11.616;2022-10-22T12:11:05;21.00;58.50
18365;DHT22;9309;52.126;11.616;2022-10-22T12:13:55;20.40;60.80
18365;DHT22;9309;52.126;11.616;2022-10-22T12:16:24;20.20;62.30
18365;DHT22;9309;52.126;11.616;2022-10-22T12:19:10;20.00;61.80
18365;DHT22;9309;52.126;11.616;2022-10-22T12:21:40;19.80;62.30
18365;DHT22;9309;52.126;11.616;2022-10-22T12:24:12;19.90;62.90
18365;DHT22;9309;52.126;11.616;2022-10-22T12:26:42;20.00;60.40
18365;DHT22;9309;52.126;11.616;2022-10-22T12:29:12;19.90;61.40
18365;DHT22;9309;52.126;11.616;2022-10-22T12:31:42;20.00;61.50
18365;DHT22;9309;52.126;11.616;2022-10-22T12:34:13;20.00;60.00
18365;DHT22;9309;52.126;11.616;2022-10-22T12:36:41;20.10;59.30
18365;DHT22;9309;52.126;11.616;2022-10-22T12:39:13;20.10;60.40
18365;DHT22;9309;52.126;11.616;2022-10-22T12:41:42;20.00;60.70
18365;DHT22;9309;52.126;11.616;2022-10-22T12:44:11;20.00;61.50
18365;DHT22;9309;52.126;11.616;2022-10-22T12:46:39;20.20;61.90
18365;DHT22;9309;52.126;11.616;2022-10-22T12:49:13;20.10;63.00
18365;DHT22;9309;52.126;11.616;2022-10-22T12:51:42;20.20;63.40
18365;DHT22;9309;52.126;11.616;2022-10-22T12:54:17;20.50;63.00
18365;DHT22;9309;52.126;11.616;2022-10-22T12:56:47;20.50;63.00
18365;DHT22;9309;52.126;11.616;2022-10-22T12:59:18;20.80;62.30
18365;DHT22;9309;52.126;11.616;2022-10-22T13:01:48;21.20;61.40
18365;DHT22;9309;52.126;11.616;2022-10-22T13:04:32;21.70;60.40
18365;DHT22;9309;52.126;11.616;2022-10-22T13:09:55;23.40;54.70
18365;DHT22;9309;52.126;11.616;2022-10-22T13:12:26;26.40;49.80
18365;DHT22;9309;52.126;11.616;2022-10-22T13:14:53;30.00;40.30
18365;DHT22;9309;52.126;11.616;2022-10-22T13:17:36;30.50;38.80
18365;DHT22;9309;52.126;11.616;2022-10-22T13:20:14;30.60;37.90
18365;DHT22;9309;52.126;11.616;2022-10-22T13:22:52;30.20;39.00
18365;DHT22;9309;52.126;11.616;2022-10-22T13:25:22;29.70;37.90
18365;DHT22;9309;52.126;11.616;2022-10-22T13:27:53;28.30;40.30
18365;DHT22;9309;52.126;11.616;2022-10-22T13:30:23;25.80;45.60
18365;DHT22;9309;52.126;11.616;2022-10-22T13:32:52;26.30;44.70
18365;DHT22;9309;52.126;11.616;2022-10-22T13:35:23;25.70;45.70
18365;DHT22;9309;52.126;11.616;2022-10-22T13:37:51;24.60;48.20
18365;DHT22;9309;52.126;11.616;2022-10-22T13:40:19;23.10;51.20
18365;DHT22;9309;52.126;11.616;2022-10-22T13:42:46;22.00;54.30
18365;DHT22;9309;52.126;11.616;2022-10-22T13:45:15;21.30;56.70
18365;DHT22;9309;52.126;11.616;2022-10-22T13:47:46;21.00;57.90
18365;DHT22;9309;52.126;11.616;2022-10-22T13:50:16;20.90;58.20
18365;DHT22;9309;52.126;11.616;2022-10-22T13:52:45;21.00;57.40
18365;DHT22;9309;52.126;11.616;2022-10-22T13:55:15;21.60;56.00
18365;DHT22;9309;52.126;11.616;2022-10-22T13:57:43;21.60;55.50
18365;DHT22;9309;52.126;11.616;2022-10-22T14:00:14;21.40;55.80
18365;DHT22;9309;52.126;11.616;2022-10-22T14:02:42;21.30;56.60
18365;DHT22;9309;52.126;11.616;2022-10-22T14:05:09;21.00;56.90
18365;DHT22;9309;52.126;11.616;2022-10-22T14:07:37;20.80;57.40
18365;DHT22;9309;52.126;11.616;2022-10-22T14:10:13;20.90;57.40
18365;DHT22;9309;52.126;11.616;2022-10-22T14:12:40;20.60;58.00
18365;DHT22;9309;52.126;11.616;2022-10-22T14:15:09;20.40;59.70
18365;DHT22;9309;52.126;11.616;2022-10-22T14:17:39;20.00;60.50
18365;DHT22;9309;52.126;11.616;2022-10-22T14:20:13;19.80;61.90
18365;DHT22;9309;52.126;11.616;2022-10-22T14:22:41;19.90;61.70
18365;DHT22;9309;52.126;11.616;2022-10-22T14:25:11;19.70;62.30
18365;DHT22;9309;52.126;11.616;2022-10-22T14:27:39;19.60;63.20
18365;DHT22;9309;52.126;11.616;2022-10-22T14:30:07;19.50;62.50
18365;DHT22;9309;52.126;11.616;2022-10-22T14:32:34;19.40;63.30
18365;DHT22;9309;52.126;11.616;2022-10-22T14:35:02;19.50;63.30
18365;DHT22;9309;52.126;11.616;2022-10-22T14:37:29;19.50;62.90
18365;DHT22;9309;52.126;11.616;2022-10-22T14:39:56;19.40;62.60
18365;DHT22;9309;52.126;11.616;2022-10-22T14:42:27;19.30;62.90
18365;DHT22;9309;52.126;11.616;2022-10-22T14:44:57;19.30;62.80
18365;DHT22;9309;52.126;11.616;2022-10-22T14:47:24;19.20;63.20
18365;DHT22;9309;52.126;11.616;2022-10-22T14:49:51;19.40;63.10
18365;DHT22;9309;52.126;11.616;2022-10-22T14:52:24;19.20;62.80
18365;DHT22;9309;52.126;11.616;2022-10-22T14:54:55;19.10;63.80
18365;DHT22;9309;52.126;11.616;2022-10-22T14:57:21;19.10;63.70
18365;DHT22;9309;52.126;11.616;2022-10-22T14:59:48;19.30;63.40
18365;DHT22;9309;52.126;11.616;2022-10-22T15:02:20;19.30;63.90
18365;DHT22;9309;52.126;11.616;2022-10-22T15:04:47;19.20;63.00
18365;DHT22;9309;52.126;11.616;2022-10-22T15:07:14;19.00;63.70
18365;DHT22;9309;52.126;11.616;2022-10-22T15:09:42;18.90;63.90
18365;DHT22;9309;52.126;11.616;2022-10-22T15:12:09;18.80;64.00
18365;DHT22;9309;52.126;11.616;2022-10-22T15:14:36;18.70;64.50
18365;DHT22;9309;52.126;11.616;2022-10-22T15:17:03;18.60;65.00
18365;DHT22;9309;52.126;11.616;2022-10-22T15:19:30;18.40;65.90
18365;DHT22;9309;52.126;11.616;2022-10-22T15:21:56;18.40;65.90
18365;DHT22;9309;52.126;11.616;2022-10-22T15:24:23;18.40;65.60
18365;DHT22;9309;52.126;11.616;2022-10-22T15:26:52;18.40;65.30
18365;DHT22;9309;52.126;11.616;2022-10-22T15:29:19;18.30;65.30
18365;DHT22;9309;52.126;11.616;2022-10-22T15:31:49;18.20;65.30
18365;DHT22;9309;52.126;11.616;2022-10-22T15:34:18;18.20;65.50
18365;DHT22;9309;52.126;11.616;2022-10-22T15:36:45;18.30;65.00
18365;DHT22;9309;52.126;11.616;2022-10-22T15:39:12;18.40;65.00
18365;DHT22;9309;52.126;11.616;2022-10-22T15:41:39;18.40;65.00
18365;DHT22;9309;52.126;11.616;2022-10-22T15:44:08;18.20;65.00
18365;DHT22;9309;52.126;11.616;2022-10-22T15:46:38;18.10;65.10
18365;DHT22;9309;52.126;11.616;2022-10-22T15:49:06;18.00;66.00
18365;DHT22;9309;52.126;11.616;2022-10-22T15:51:33;17.80;66.90
18365;DHT22;9309;52.126;11.616;2022-10-22T15:54:00;17.60;67.70
18365;DHT22;9309;52.126;11.616;2022-10-22T15:56:28;17.50;67.60
18365;DHT22;9309;52.126;11.616;2022-10-22T15:58:58;17.40;68.70